Time;durP1;ratioP1;P1;durP2;ratioP2;P2;SDS_P1;SDS_P2;PMS_P1;PMS_P2;Temp;Humidity;BMP_temperature;BMP_pressure;BME280_temperature;BME280_humidity;BME280_pressure;Samples;Min_cycle;Max_cycle;Signal;HPM_P1;HPM_P2
2021/12/04 00:01:25;;;;;;;8.77;4.87;;;;;;;7.02;100.00;99859.06;5075796;28;20234;-82
2021/12/04 00:03:52;;;;;;;9.97;4.90;;;;;;;7.17;100.00;99874.91;5073575;28;20635;-82
2021/12/04 00:06:24;;;;;;;4.97;3.93;;;;;;;7.11;100.00;99865.31;5057360;28;20222;-82
2021/12/04 00:08:51;;;;;;;4.77;3.93;;;;;;;7.18;100.00;99874.06;5060284;28;20295;-82
2021/12/04 00:11:18;;;;;;;5.17;3.73;;;;;;;7.14;100.00;99872.25;5078378;28;20191;-81
2021/12/04 00:13:45;;;;;;;3.87;3.47;;;;;;;6.87;100.00;99831.19;5080486;28;20223;-81
2021/12/04 00:16:12;;;;;;;4.03;3.37;;;;;;;7.10;100.00;99867.88;5079626;28;20203;-81
2021/12/04 00:18:39;;;;;;;5.93;3.80;;;;;;;7.06;100.00;99874.66;5062841;28;20187;-83
2021/12/04 00:21:06;;;;;;;4.43;4.03;;;;;;;6.98;100.00;99868.41;5075550;28;20731;-84
2021/12/04 00:23:34;;;;;;;8.90;4.00;;;;;;;6.96;100.00;99857.19;5075435;28;20669;-84
2021/12/04 00:26:01;;;;;;;4.70;3.90;;;;;;;7.06;100.00;99872.06;5064142;28;20198;-81
2021/12/04 00:28:28;;;;;;;4.83;4.27;;;;;;;6.98;100.00;99863.25;5073824;28;20191;-81
2021/12/04 00:30:55;;;;;;;5.17;4.27;;;;;;;7.01;100.00;99868.50;5072771;28;20223;-82
2021/12/04 00:33:24;;;;;;;6.67;4.43;;;;;;;6.79;100.00;99850.72;5076124;28;20202;-84
2021/12/04 00:35:56;;;;;;;5.00;4.33;;;;;;;6.76;100.00;99871.25;5063947;28;20210;-83
2021/12/04 00:49:24;;;;;;;7.87;5.00;;;;;;;6.34;100.00;99864.13;5069722;28;20218;-82
2021/12/04 00:51:54;;;;;;;3.70;3.30;;;;;;;6.11;100.00;99862.56;5071856;28;20575;-85
2021/12/04 00:54:22;;;;;;;8.40;5.90;;;;;;;5.65;100.00;99771.97;5075583;28;20198;-83
2021/12/04 00:56:50;;;;;;;6.67;4.90;;;;;;;5.78;100.00;99794.69;5071454;28;20202;-85
2021/12/04 00:59:17;;;;;;;7.07;6.07;;;;;;;5.97;100.00;99846.75;5073413;28;20209;-84
2021/12/04 01:01:45;;;;;;;12.43;8.27;;;;;;;5.77;100.00;99849.50;5055904;28;20219;-85
2021/12/04 01:04:13;;;;;;;11.07;7.57;;;;;;;5.65;100.00;99838.84;5052958;28;20221;-85
2021/12/04 01:06:41;;;;;;;13.67;9.70;;;;;;;4.85;100.00;99707.00;5065893;28;20194;-82
2021/12/04 01:09:09;;;;;;;12.40;8.27;;;;;;;5.59;100.00;99828.38;5060204;28;20203;-83
2021/12/04 01:11:37;;;;;;;12.20;10.37;;;;;;;5.59;100.00;99834.41;5066166;28;20198;-82
2021/12/04 01:14:07;;;;;;;14.43;10.27;;;;;;;5.27;100.00;99779.44;5072425;28;20199;-82
2021/12/04 01:16:34;;;;;;;16.77;10.93;;;;;;;5.51;100.00;99830.72;5071991;28;20207;-82
2021/12/04 01:19:00;;;;;;;14.87;10.30;;;;;;;5.40;100.00;99814.97;5072081;28;20202;-82
2021/12/04 01:21:27;;;;;;;18.77;12.50;;;;;;;5.51;100.00;99833.28;5072003;28;20207;-85
2021/12/04 01:23:55;;;;;;;16.20;11.37;;;;;;;5.46;100.00;99832.25;5071960;28;20203;-84
2021/12/04 01:26:22;;;;;;;17.73;11.67;;;;;;;5.32;100.00;99829.25;5071601;28;20202;-85
2021/12/04 01:28:49;;;;;;;18.17;12.53;;;;;;;5.26;100.00;99836.78;5061486;28;20665;-84
2021/12/04 01:31:17;;;;;;;15.97;10.03;;;;;;;5.28;100.00;99842.00;5052044;28;20226;-83
2021/12/04 01:33:44;;;;;;;14.90;10.70;;;;;;;5.23;100.00;99839.25;5064893;28;20195;-84
2021/12/04 01:36:11;;;;;;;18.70;12.03;;;;;;;5.32;100.00;99842.13;5071179;28;20560;-84
2021/12/04 01:38:38;;;;;;;13.83;8.13;;;;;;;5.26;100.00;99843.63;5054574;28;20674;-82
2021/12/04 01:41:05;;;;;;;17.77;12.03;;;;;;;4.65;100.00;99753.41;5051688;28;20198;-80
2021/12/04 01:43:32;;;;;;;14.40;10.73;;;;;;;5.22;100.00;99842.66;5051730;28;20199;-82
2021/12/04 01:45:59;;;;;;;14.17;10.10;;;;;;;5.05;100.00;99823.25;5051550;28;20198;-83
2021/12/04 01:48:28;;;;;;;17.03;10.73;;;;;;;5.13;100.00;99821.81;5063754;28;20198;-85
2021/12/04 01:50:56;;;;;;;14.40;9.73;;;;;;;5.10;100.00;99826.81;5071536;28;20237;-83
2021/12/04 01:53:23;;;;;;;12.83;9.83;;;;;;;5.04;100.00;99824.06;5070959;28;20669;-85
2021/12/04 01:55:52;;;;;;;12.83;9.47;;;;;;;4.91;100.00;99812.53;5059049;28;20195;-83
2021/12/04 01:58:19;;;;;;;17.00;10.17;;;;;;;4.42;100.00;99745.81;5064063;28;20194;-83
2021/12/04 02:00:47;;;;;;;9.27;7.03;;;;;;;4.76;100.00;99821.41;5055140;28;20288;-83
2021/12/04 02:03:14;;;;;;;12.77;7.50;;;;;;;4.78;100.00;99819.78;5053228;28;20197;-84
2021/12/04 02:05:42;;;;;;;14.23;8.47;;;;;;;4.61;100.00;99787.50;5069807;28;20222;-84
2021/12/04 02:08:12;;;;;;;12.27;8.87;;;;;;;4.84;100.00;99808.00;5060456;28;20657;-80
2021/12/04 02:10:39;;;;;;;8.50;6.57;;;;;;;4.61;100.00;99802.91;5065814;28;20223;-83
2021/12/04 02:13:06;;;;;;;16.97;10.70;;;;;;;4.73;100.00;99791.38;5051367;28;20195;-85
2021/12/04 02:15:33;;;;;;;12.93;8.83;;;;;;;4.76;100.00;99795.72;5052748;28;20199;-82
2021/12/04 02:18:02;;;;;;;16.03;10.87;;;;;;;4.77;100.00;99790.66;5068370;28;20195;-84
2021/12/04 02:20:33;;;;;;;15.47;10.37;;;;;;;4.80;100.00;99795.88;5075277;28;20246;-83
2021/12/04 02:23:01;;;;;;;12.63;9.03;;;;;;;4.79;100.00;99790.69;5075311;28;20198;-84
2021/12/04 02:25:28;;;;;;;10.13;7.63;;;;;;;3.37;100.00;99553.28;5059062;28;20594;-86
2021/12/04 02:27:55;;;;;;;13.43;8.63;;;;;;;4.77;100.00;99790.66;5060429;28;20242;-82
2021/12/04 02:30:26;;;;;;;10.83;7.93;;;;;;;4.58;100.00;99756.59;5057084;28;20219;-85
2021/12/04 02:32:53;;;;;;;11.87;8.70;;;;;;;4.37;100.00;99721.72;5055220;28;20195;-82
2021/12/04 02:35:21;;;;;;;7.03;6.10;;;;;;;4.70;100.00;99782.69;5055388;28;20574;-83
2021/12/04 02:37:50;;;;;;;16.63;10.90;;;;;;;4.33;100.00;99719.84;5057227;28;20206;-85
2021/12/04 02:40:20;;;;;;;11.70;8.40;;;;;;;4.65;100.00;99781.66;5070320;28;20684;-83
2021/12/04 02:42:47;;;;;;;14.83;10.37;;;;;;;4.65;100.00;99779.09;5055795;28;20203;-84
2021/12/04 02:45:15;;;;;;;15.73;9.87;;;;;;;4.61;100.00;99787.50;5059528;28;20199;-85
2021/12/04 02:47:43;;;;;;;9.30;7.53;;;;;;;3.54;100.00;99630.72;5072878;28;20213;-83
2021/12/04 02:50:11;;;;;;;11.87;7.10;;;;;;;3.88;100.00;99701.19;5075765;28;20219;-83
2021/12/04 02:52:39;;;;;;;8.77;6.00;;;;;;;4.30;100.00;99796.72;5065703;28;20195;-83
2021/12/04 02:55:08;;;;;;;13.60;9.97;;;;;;;4.42;100.00;99798.88;5055060;28;20223;-84
2021/12/04 02:57:40;;;;;;;14.33;9.80;;;;;;;4.13;100.00;99736.28;5071180;28;20206;-84
2021/12/04 03:00:09;;;;;;;11.97;8.90;;;;;;;4.36;100.00;99776.41;5072702;28;20202;-82
2021/12/04 03:02:35;;;;;;;9.50;7.10;;;;;;;4.39;100.00;99801.28;5060952;28;20191;-85
2021/12/04 03:05:06;;;;;;;13.47;9.37;;;;;;;4.40;100.00;99806.50;5067543;28;20217;-84
2021/12/04 03:07:34;;;;;;;13.57;9.57;;;;;;;4.45;100.00;99804.09;5055620;28;20192;-85
2021/12/04 03:10:00;;;;;;;15.80;10.90;;;;;;;4.52;100.00;99802.59;5054044;28;20269;-82
2021/12/04 03:12:29;;;;;;;18.10;11.93;;;;;;;4.53;100.00;99796.66;5060441;28;20222;-82
2021/12/04 03:14:56;;;;;;;14.40;10.07;;;;;;;4.09;100.00;99739.53;5066755;28;20192;-83
2021/12/04 03:17:25;;;;;;;9.13;7.27;;;;;;;4.45;100.00;99797.28;5054548;28;20199;-82
2021/12/04 03:19:53;;;;;;;10.47;6.27;;;;;;;4.38;100.00;99787.63;5058032;28;20214;-84
2021/12/04 03:22:21;;;;;;;15.63;10.97;;;;;;;4.42;100.00;99786.88;5074307;28;20194;-84
2021/12/04 03:24:49;;;;;;;9.50;7.40;;;;;;;4.34;100.00;99795.16;5074494;28;20207;-80
2021/12/04 03:27:17;;;;;;;15.30;9.83;;;;;;;4.38;100.00;99812.41;5053238;28;20188;-86
2021/12/04 03:29:48;;;;;;;15.60;10.53;;;;;;;4.40;100.00;99803.94;5055025;28;20195;-82
2021/12/04 03:32:51;;;;;;;12.97;9.73;;;;;;;4.39;100.00;99807.31;5054726;28;20195;-83
2021/12/04 03:35:23;;;;;;;15.73;10.83;;;;;;;4.35;100.00;99802.03;5053085;28;20201;-85
2021/12/04 03:40:51;;;;;;;15.53;11.47;;;;;;;4.24;100.00;99817.06;5042591;28;20213;-83
2021/12/04 03:43:18;;;;;;;15.57;10.73;;;;;;;4.27;100.00;99809.47;5068304;28;20203;-82
2021/12/04 03:45:52;;;;;;;17.03;10.93;;;;;;;4.33;100.00;99811.34;5064674;28;20202;-84
2021/12/04 03:48:39;;;;;;;16.03;10.90;;;;;;;4.40;100.00;99809.06;5071272;28;20573;-84
2021/12/04 03:51:08;;;;;;;21.23;12.30;;;;;;;4.18;100.00;99774.88;5059668;28;20223;-85
2021/12/04 03:53:35;;;;;;;14.70;10.07;;;;;;;4.32;100.00;99820.75;5054393;28;20227;-83
2021/12/04 03:56:02;;;;;;;14.70;9.10;;;;;;;4.19;100.00;99810.00;5055564;28;20195;-84
2021/12/04 03:58:29;;;;;;;11.03;8.23;;;;;;;4.25;100.00;99816.22;5053682;28;20195;-82
2021/12/04 04:00:58;;;;;;;16.57;11.07;;;;;;;4.27;100.00;99812.03;5067822;28;20207;-86
2021/12/04 04:03:27;;;;;;;10.37;6.53;;;;;;;4.05;100.00;99789.00;5069387;28;20192;-82
2021/12/04 04:05:54;;;;;;;10.70;7.87;;;;;;;4.04;100.00;99812.88;5060566;28;20630;-83
2021/12/04 04:08:21;;;;;;;18.33;11.40;;;;;;;4.13;100.00;99813.22;5053519;28;20200;-83
2021/12/04 04:10:49;;;;;;;8.27;6.53;;;;;;;4.11;100.00;99819.97;5055604;28;20223;-83
2021/12/04 04:13:16;;;;;;;17.67;10.57;;;;;;;4.12;100.00;99821.72;5068924;28;20288;-82
2021/12/04 04:15:43;;;;;;;14.53;8.77;;;;;;;4.13;100.00;99831.19;5053940;28;20573;-84
2021/12/04 04:18:11;;;;;;;18.50;11.40;;;;;;;4.06;100.00;99824.09;5073040;28;20203;-83
2021/12/04 04:20:38;;;;;;;14.33;7.17;;;;;;;4.10;100.00;99838.78;5073795;28;20225;-84
2021/12/04 04:23:05;;;;;;;13.27;9.13;;;;;;;3.65;100.00;99765.25;5056156;28;20203;-84
2021/12/04 04:25:32;;;;;;;13.60;10.03;;;;;;;4.07;100.00;99845.50;5070396;28;20198;-79
2021/12/04 04:27:59;;;;;;;9.03;7.17;;;;;;;3.61;100.00;99771.09;5072821;28;20198;-82
2021/12/04 04:30:26;;;;;;;13.97;8.03;;;;;;;3.70;100.00;99804.78;5054888;28;20216;-83
2021/12/04 04:32:54;;;;;;;10.17;8.13;;;;;;;3.32;100.00;99755.50;5053480;28;20199;-84
2021/12/04 04:35:25;;;;;;;7.33;5.43;;;;;;;3.97;100.00;99852.81;5052049;28;20651;-81
2021/12/04 04:37:58;;;;;;;15.33;10.90;;;;;;;3.35;100.00;99770.97;5053031;28;20200;-83
2021/12/04 04:59:47;;;;;;;14.97;9.13;;;;;;;3.29;100.00;99780.13;5072297;28;20228;-80
2021/12/04 05:10:53;;;;;;;10.80;7.03;;;;;;;3.25;100.00;99845.72;5053868;28;20361;-83
2021/12/04 05:13:21;;;;;;;11.87;7.77;;;;;;;3.45;100.00;99888.41;5052919;28;20277;-83
2021/12/04 05:15:58;;;;;;;9.70;6.43;;;;;;;3.51;100.00;99890.31;5055669;28;20191;-83
2021/12/04 05:18:35;;;;;;;11.83;9.30;;;;;;;3.50;100.00;99892.00;5058366;28;20194;-82
2021/12/04 05:21:07;;;;;;;17.00;10.97;;;;;;;3.65;100.00;99899.44;5071511;28;20756;-81
2021/12/04 05:23:37;;;;;;;14.73;9.13;;;;;;;3.75;100.00;99900.66;5071688;28;20198;-84
2021/12/04 05:26:06;;;;;;;14.50;8.83;;;;;;;3.65;100.00;99911.38;5072308;28;20203;-83
2021/12/04 05:28:33;;;;;;;12.63;8.67;;;;;;;3.08;100.00;99807.44;5058602;28;20694;-82
2021/12/04 05:31:00;;;;;;;12.97;8.17;;;;;;;3.57;100.00;99905.94;5052952;28;20223;-81
2021/12/04 05:33:27;;;;;;;15.17;9.20;;;;;;;3.55;100.00;99901.56;5052481;28;20588;-82
2021/12/04 05:35:54;;;;;;;8.87;6.73;;;;;;;3.21;100.00;99859.22;5051281;28;20192;-82
2021/12/04 05:38:21;;;;;;;15.07;9.70;;;;;;;3.49;100.00;99900.53;5066837;28;20694;-83
2021/12/04 05:40:49;;;;;;;14.30;10.27;;;;;;;3.55;100.00;99881.06;5071545;28;20194;-83
2021/12/04 05:43:18;;;;;;;14.00;9.33;;;;;;;3.54;100.00;99880.19;5071514;28;20202;-84
2021/12/04 05:45:48;;;;;;;10.10;6.53;;;;;;;3.41;100.00;99878.84;5056782;28;20245;-82
2021/12/04 05:48:18;;;;;;;14.77;7.90;;;;;;;3.36;100.00;99870.09;5056039;28;20245;-81
2021/12/04 05:53:55;;;;;;;12.87;8.27;;;;;;;3.34;100.00;99881.97;5052493;28;20766;-85
2021/12/04 05:56:24;;;;;;;11.90;8.03;;;;;;;3.12;100.00;99881.91;5070985;28;20244;-79
2021/12/04 05:58:52;;;;;;;6.67;5.30;;;;;;;3.16;100.00;99891.47;5073774;28;20190;-82
2021/12/04 06:01:21;;;;;;;7.80;5.17;;;;;;;3.05;100.00;99892.72;5061375;28;20253;-86
2021/12/04 06:03:49;;;;;;;6.80;4.90;;;;;;;2.92;100.00;99870.88;5075631;28;20187;-85
2021/12/04 06:06:16;;;;;;;5.33;3.80;;;;;;;2.93;100.00;99893.06;5065612;28;20203;-84
2021/12/04 06:08:43;;;;;;;14.67;8.20;;;;;;;2.89;100.00;99874.97;5075538;28;20203;-84
2021/12/04 06:11:10;;;;;;;7.70;5.47;;;;;;;2.89;100.00;99883.50;5076064;28;20301;-82
2021/12/04 06:13:39;;;;;;;17.07;9.80;;;;;;;2.82;100.00;99868.72;5075953;28;20577;-81
2021/12/04 06:16:06;;;;;;;11.53;6.93;;;;;;;2.92;100.00;99891.34;5075121;28;20707;-85
2021/12/04 06:18:33;;;;;;;15.77;7.20;;;;;;;2.95;100.00;99895.72;5068524;28;20191;-84
2021/12/04 06:23:45;;;;;;;7.70;5.63;;;;;;;2.58;100.00;99847.19;5075494;28;20248;-81
2021/12/04 06:26:12;;;;;;;14.23;10.17;;;;;;;3.02;100.00;99918.22;5069501;28;20212;-81
2021/12/04 06:28:40;;;;;;;12.97;8.40;;;;;;;2.57;100.00;99824.13;5056150;28;20195;-82
2021/12/04 06:31:09;;;;;;;13.47;8.43;;;;;;;3.02;100.00;99913.09;5055390;28;20215;-83
2021/12/04 06:33:36;;;;;;;10.97;6.37;;;;;;;2.96;100.00;99908.56;5054907;28;20191;-83
2021/12/04 06:36:04;;;;;;;12.67;7.73;;;;;;;2.41;100.00;99833.69;5054630;28;20207;-81
2021/12/04 06:38:31;;;;;;;12.23;7.17;;;;;;;2.79;100.00;99913.78;5055110;28;20608;-87
2021/12/04 06:40:58;;;;;;;9.47;6.03;;;;;;;2.83;100.00;99920.78;5055802;28;20632;-84
2021/12/04 06:43:26;;;;;;;7.50;5.13;;;;;;;2.86;100.00;99918.34;5069300;28;20195;-81
2021/12/04 06:45:59;;;;;;;6.60;5.43;;;;;;;2.74;100.00;99925.53;5063718;28;20190;-84
2021/12/04 06:48:32;;;;;;;10.83;5.67;;;;;;;2.53;100.00;99906.69;5073712;28;20190;-84
2021/12/04 06:51:02;;;;;;;11.23;7.07;;;;;;;2.75;100.00;99937.50;5073835;28;20735;-78
2021/12/04 06:53:32;;;;;;;14.13;8.87;;;;;;;2.79;100.00;99944.50;5059366;28;20287;-84
2021/12/04 06:56:01;;;;;;;18.10;9.70;;;;;;;2.79;100.00;99934.25;5055659;28;20191;-82
2021/12/04 06:58:29;;;;;;;10.87;7.33;;;;;;;2.79;100.00;99936.81;5071042;28;20194;-77
2021/12/04 07:00:57;;;;;;;7.00;3.83;;;;;;;2.64;100.00;99938.72;5070435;28;20689;-76
2021/12/04 07:03:24;;;;;;;5.17;3.30;;;;;;;2.73;100.00;99931.44;5056551;28;20195;-78
2021/12/04 07:05:51;;;;;;;11.20;7.70;;;;;;;2.64;100.00;99928.50;5063947;28;20622;-78
2021/12/04 07:08:18;;;;;;;11.80;7.63;;;;;;;2.89;100.00;99926.19;5057994;28;20669;-78
2021/12/04 07:10:45;;;;;;;11.30;6.90;;;;;;;2.80;100.00;99921.53;5072948;28;20191;-78
2021/12/04 07:13:12;;;;;;;15.10;9.07;;;;;;;2.84;100.00;99909.75;5055718;28;20188;-82
2021/12/04 07:15:41;;;;;;;15.73;8.40;;;;;;;2.79;100.00;99890.75;5063223;28;20570;-85
2021/12/04 07:18:10;;;;;;;9.10;6.47;;;;;;;2.74;100.00;99912.72;5069406;28;20246;-83
2021/12/04 07:20:37;;;;;;;5.93;4.40;;;;;;;2.78;100.00;99922.28;5070319;28;20598;-84
2021/12/04 07:23:04;;;;;;;11.57;7.57;;;;;;;2.77;100.00;99912.84;5054507;28;20698;-83
2021/12/04 07:25:32;;;;;;;10.07;6.30;;;;;;;2.22;100.00;99843.94;5054512;28;20200;-84
2021/12/04 07:28:00;;;;;;;6.83;4.03;;;;;;;2.65;100.00;99922.56;5055455;28;20616;-73
2021/12/04 07:30:27;;;;;;;10.53;5.57;;;;;;;2.55;100.00;99885.47;5053878;28;20221;-80
2021/12/04 07:32:54;;;;;;;5.63;4.73;;;;;;;2.57;100.00;99908.56;5053942;28;20613;-82
2021/12/04 07:35:22;;;;;;;12.90;7.53;;;;;;;2.40;100.00;99872.00;5063616;28;20203;-81
2021/12/04 07:37:49;;;;;;;17.10;7.37;;;;;;;2.69;100.00;99916.75;5073691;28;20191;-81
2021/12/04 07:40:16;;;;;;;4.67;4.20;;;;;;;2.49;100.00;99898.00;5073833;28;20194;-80
2021/12/04 07:42:43;;;;;;;9.40;6.70;;;;;;;2.64;100.00;99910.59;5073933;28;20198;-80
2021/12/04 07:45:10;;;;;;;8.07;5.17;;;;;;;2.75;100.00;99910.22;5073312;28;20202;-81
2021/12/04 07:47:37;;;;;;;9.17;6.20;;;;;;;2.21;100.00;99823.44;5059702;28;20194;-80
2021/12/04 07:50:07;;;;;;;10.77;6.20;;;;;;;2.37;100.00;99836.94;5064712;28;20198;-80
2021/12/04 07:52:37;;;;;;;8.60;6.47;;;;;;;2.77;100.00;99921.41;5073481;28;20234;-80
2021/12/04 07:55:05;;;;;;;8.57;6.17;;;;;;;2.87;100.00;99921.00;5054382;28;20195;-75
2021/12/04 07:57:32;;;;;;;15.80;9.30;;;;;;;3.48;100.00;99906.47;5053640;28;20220;-81
2021/12/04 07:59:59;;;;;;;15.53;8.20;;;;;;;2.82;100.00;99857.59;5053511;28;20196;-79
2021/12/04 08:02:25;;;;;;;14.37;9.97;;;;;;;3.14;100.00;99903.34;5066962;28;20221;-82
2021/12/04 08:04:52;;;;;;;9.13;6.37;;;;;;;2.97;100.00;99909.44;5073669;28;20198;-79
2021/12/04 08:07:19;;;;;;;9.33;6.73;;;;;;;2.79;100.00;99880.50;5057817;28;20194;-80
2021/12/04 08:09:47;;;;;;;7.20;4.97;;;;;;;2.99;100.00;99913.84;5072951;28;20194;-79
2021/12/04 08:12:14;;;;;;;5.80;5.13;;;;;;;2.80;100.00;99907.84;5069866;28;20215;-82
2021/12/04 08:14:41;;;;;;;4.90;4.50;;;;;;;2.73;100.00;99903.28;5071667;28;20631;-82
2021/12/04 08:17:08;;;;;;;7.17;5.10;;;;;;;2.54;100.00;99847.88;5072204;28;20187;-81
2021/12/04 08:19:35;;;;;;;10.93;6.70;;;;;;;2.86;100.00;99896.19;5066349;28;20231;-82
2021/12/04 08:22:02;;;;;;;18.50;8.60;;;;;;;2.44;100.00;99818.47;5053316;28;20195;-81
2021/12/04 08:24:29;;;;;;;11.40;6.83;;;;;;;2.92;100.00;99893.03;5053095;28;20675;-80
2021/12/04 08:26:57;;;;;;;13.30;5.93;;;;;;;2.95;100.00;99893.16;5070042;28;20232;-79
2021/12/04 08:29:24;;;;;;;8.67;6.30;;;;;;;2.99;100.00;99887.34;5073257;28;20199;-78
2021/12/04 08:31:51;;;;;;;14.93;9.80;;;;;;;3.08;100.00;99892.84;5073473;28;20234;-80
2021/12/04 08:34:18;;;;;;;16.13;8.37;;;;;;;3.46;100.00;99884.16;5059088;28;20269;-79
2021/12/04 08:36:46;;;;;;;14.13;9.47;;;;;;;3.38;100.00;99888.09;5052279;28;20682;-82
2021/12/04 08:39:13;;;;;;;11.60;8.13;;;;;;;3.39;100.00;99875.34;5053162;28;20192;-82
2021/12/04 08:41:41;;;;;;;15.40;8.70;;;;;;;3.35;100.00;99883.72;5055105;28;20202;-80
2021/12/04 08:44:09;;;;;;;12.60;9.47;;;;;;;3.33;100.00;99879.34;5072578;28;20198;-83
2021/12/04 08:46:37;;;;;;;6.60;5.53;;;;;;;3.29;100.00;99880.03;5053865;28;20674;-79
2021/12/04 08:49:05;;;;;;;11.43;7.60;;;;;;;3.05;100.00;99828.69;5069228;28;20199;-82
2021/12/04 08:51:32;;;;;;;9.00;6.40;;;;;;;3.43;100.00;99900.28;5072368;28;20680;-80
2021/12/04 08:53:59;;;;;;;12.80;8.13;;;;;;;3.50;100.00;99897.13;5055961;28;20565;-81
2021/12/04 08:56:26;;;;;;;5.47;4.93;;;;;;;3.33;100.00;99879.34;5070519;28;20194;-80
2021/12/04 08:58:53;;;;;;;7.40;5.93;;;;;;;3.41;100.00;99909.59;5071577;28;20190;-80
2021/12/04 09:01:25;;;;;;;6.27;5.60;;;;;;;3.57;100.00;99905.09;5071659;28;20230;-81
2021/12/04 09:03:55;;;;;;;8.53;6.53;;;;;;;3.57;100.00;99899.97;5071719;28;20198;-74
2021/12/04 09:06:22;;;;;;;9.67;6.60;;;;;;;3.25;100.00;99835.47;5070757;28;20194;-82
2021/12/04 09:08:49;;;;;;;6.17;5.33;;;;;;;3.15;100.00;99833.38;5064571;28;20629;-81
2021/12/04 09:11:21;;;;;;;10.47;6.07;;;;;;;3.58;100.00;99894.00;5053265;28;20195;-77
2021/12/04 09:13:49;;;;;;;6.83;5.00;;;;;;;3.89;100.00;99891.81;5071255;28;20230;-79
2021/12/04 09:16:16;;;;;;;9.53;6.20;;;;;;;3.71;100.00;99878.31;5058939;28;20682;-83
2021/12/04 09:18:45;;;;;;;5.53;5.00;;;;;;;3.31;100.00;99863.94;5053758;28;20203;-83
2021/12/04 09:21:12;;;;;;;7.07;5.17;;;;;;;3.36;100.00;99864.97;5071810;28;20660;-83
2021/12/04 09:23:42;;;;;;;8.83;6.40;;;;;;;3.53;100.00;99878.47;5071630;28;20673;-83
2021/12/04 09:26:13;;;;;;;7.50;5.40;;;;;;;3.40;100.00;99824.97;5071889;28;20201;-82
2021/12/04 09:28:50;;;;;;;10.50;6.40;;;;;;;3.50;100.00;99868.94;5071641;28;20658;-82
2021/12/04 09:31:42;;;;;;;6.67;5.70;;;;;;;3.36;100.00;99823.97;5069665;28;20198;-82
2021/12/04 09:59:40;;;;;;;5.37;3.73;;;;;;;3.23;100.00;99775.66;5052982;28;20600;-78
2021/12/04 10:02:16;;;;;;;5.93;4.33;;;;;;;3.67;100.00;99830.28;5051842;28;20235;-79
2021/12/04 10:16:20;;;;;;;6.03;5.43;;;;;;;3.61;100.00;99841.16;5051401;28;20207;-81
2021/12/04 10:19:04;;;;;;;8.57;6.50;;;;;;;3.81;100.00;99839.38;5051305;28;20261;-78
2021/12/04 10:21:46;;;;;;;8.10;6.10;;;;;;;4.01;100.00;99846.13;5051286;28;20282;-83
2021/12/04 10:24:41;;;;;;;6.37;5.77;;;;;;;3.73;100.00;99816.00;5058823;28;20195;-81
2021/12/04 10:32:56;;;;;;;11.53;6.97;;;;;;;3.55;100.00;99824.69;5069630;28;20372;-78
2021/12/04 10:35:24;;;;;;;7.63;6.83;;;;;;;3.86;100.00;99850.66;5065646;28;20560;-79
2021/12/04 10:37:56;;;;;;;5.93;5.23;;;;;;;3.92;100.00;99849.19;5064847;28;20191;-79
2021/12/04 10:40:34;;;;;;;7.40;6.03;;;;;;;3.98;100.00;99853.69;5073442;28;20253;-83
2021/12/04 10:43:02;;;;;;;23.80;12.43;;;;;;;3.86;100.00;99853.22;5055971;28;20188;-73
2021/12/04 10:45:33;;;;;;;8.90;6.27;;;;;;;3.94;100.00;99857.84;5054668;28;20196;-81
2021/12/04 10:48:03;;;;;;;37.23;18.53;;;;;;;4.04;100.00;99856.47;5072142;28;20190;-79
2021/12/04 10:50:39;;;;;;;10.33;7.00;;;;;;;3.98;100.00;99852.00;5058591;28;20246;-80
2021/12/04 10:53:11;;;;;;;13.57;9.23;;;;;;;3.91;100.00;99855.16;5071053;28;20260;-79
2021/12/04 10:55:45;;;;;;;15.63;9.57;;;;;;;3.99;100.00;99840.06;5059404;28;20230;-83
2021/12/04 10:58:35;;;;;;;18.50;11.53;;;;;;;3.94;100.00;99849.28;5064784;28;20190;-79
2021/12/04 11:01:20;;;;;;;15.27;9.80;;;;;;;3.81;100.00;99837.69;5054646;28;20622;-80
2021/12/04 11:03:54;;;;;;;16.47;10.47;;;;;;;3.69;100.00;99838.91;5074014;28;20226;-79
2021/12/04 11:35:44;;;;;;;15.93;10.43;;;;;;;3.57;100.00;99816.22;5107390;28;20706;-79
2021/12/04 11:41:12;;;;;;;30.93;16.47;;;;;;;3.95;100.00;99818.56;5098243;28;20280;-81
2021/12/04 11:43:57;;;;;;;21.63;12.80;;;;;;;4.50;100.00;99813.69;5108359;28;20197;-80
2021/12/04 11:46:41;;;;;;;27.50;14.97;;;;;;;4.15;100.00;99821.84;5108962;28;20274;-77
2021/12/04 11:49:10;;;;;;;24.00;14.47;;;;;;;3.93;100.00;99819.31;5108721;28;20236;-76
2021/12/04 11:51:47;;;;;;;21.00;14.17;;;;;;;4.01;100.00;99820.47;5108651;28;20613;-76
2021/12/04 11:54:15;;;;;;;25.57;13.10;;;;;;;3.94;100.00;99816.81;5091049;28;20189;-80
2021/12/04 11:56:42;;;;;;;22.70;13.37;;;;;;;3.99;100.00;99819.56;5108091;28;20213;-78
2021/12/04 11:59:10;;;;;;;28.23;12.10;;;;;;;3.73;100.00;99807.44;5108415;28;20219;-79
2021/12/04 12:01:39;;;;;;;19.83;11.80;;;;;;;3.58;100.00;99789.78;5107622;28;20205;-76
2021/12/04 12:04:08;;;;;;;17.13;11.43;;;;;;;3.46;100.00;99789.34;5106665;28;20213;-80
2021/12/04 12:06:38;;;;;;;21.87;14.03;;;;;;;3.78;100.00;99816.19;5107332;28;20189;-75
2021/12/04 12:09:14;;;;;;;18.77;12.93;;;;;;;3.57;100.00;99817.94;5107760;28;20221;-82
2021/12/04 12:11:53;;;;;;;22.23;13.43;;;;;;;3.72;100.00;99811.69;5107865;28;20197;-77
2021/12/04 12:14:23;;;;;;;28.63;15.87;;;;;;;3.72;100.00;99810.81;5108372;28;20237;-77
2021/12/04 12:16:55;;;;;;;14.33;8.67;;;;;;;3.38;100.00;99760.88;5106888;28;20668;-79
2021/12/04 12:19:26;;;;;;;23.53;13.10;;;;;;;3.70;100.00;99808.22;5103507;28;20704;-78
2021/12/04 12:21:58;;;;;;;28.87;15.87;;;;;;;3.91;100.00;99816.69;5087566;28;20202;-79
2021/12/04 12:27:35;;;;;;;28.70;15.03;;;;;;;3.97;100.00;99810.91;5087036;28;20241;-80
2021/12/04 12:33:03;;;;;;;26.53;16.27;;;;;;;3.83;100.00;99809.53;5087570;28;20287;-81
2021/12/04 12:38:30;;;;;;;24.60;15.57;;;;;;;3.71;100.00;99817.63;5087488;28;20221;-81
2021/12/04 12:41:00;;;;;;;24.10;13.70;;;;;;;3.66;100.00;99808.91;5070299;28;20217;-81
2021/12/04 12:43:36;;;;;;;27.60;14.97;;;;;;;3.76;100.00;99810.13;5072918;28;20203;-79
2021/12/04 12:46:03;;;;;;;26.13;16.13;;;;;;;3.75;100.00;99800.66;5072815;28;20194;-79
2021/12/04 12:48:42;;;;;;;29.90;17.27;;;;;;;3.93;100.00;99811.63;5073586;28;20234;-79
2021/12/04 12:51:09;;;;;;;27.10;15.87;;;;;;;3.65;100.00;99761.00;5073755;28;20213;-81
2021/12/04 12:53:43;;;;;;;34.37;17.60;;;;;;;3.86;100.00;99789.13;5073367;28;20226;-79
2021/12/04 12:56:13;;;;;;;32.87;17.80;;;;;;;4.06;100.00;99816.41;5073709;28;20222;-79
2021/12/04 12:58:44;;;;;;;26.60;15.93;;;;;;;4.08;100.00;99819.00;5073657;28;20187;-80
2021/12/04 13:12:41;;;;;;;37.87;20.50;;;;;;;4.16;100.00;99807.31;5073582;28;20194;-81
2021/12/04 13:15:09;;;;;;;55.80;26.43;;;;;;;4.23;100.00;99810.16;5073210;28;20679;-82
2021/12/04 13:17:38;;;;;;;28.13;16.50;;;;;;;4.22;100.00;99818.69;5071590;28;20613;-82
2021/12/04 13:20:07;;;;;;;28.80;17.47;;;;;;;4.29;100.00;99820.63;5070965;28;20620;-80
2021/12/04 13:22:34;;;;;;;41.87;22.67;;;;;;;4.29;100.00;99828.34;5073399;28;20195;-80
2021/12/04 13:25:06;;;;;;;42.83;21.77;;;;;;;3.53;100.00;99704.19;5072706;28;20657;-84
2021/12/04 13:30:02;;;;;;;44.97;21.80;;;;;;;4.28;100.00;99800.91;5074733;28;20209;-82
2021/12/04 13:32:33;;;;;;;29.67;16.67;;;;;;;4.19;100.00;99800.59;5073981;28;20209;-80
2021/12/04 13:35:08;;;;;;;33.23;18.90;;;;;;;4.03;100.00;99762.44;5073068;28;20199;-81
2021/12/04 13:37:36;;;;;;;32.17;16.70;;;;;;;3.93;100.00;99762.88;5073203;28;20225;-83
2021/12/04 13:40:07;;;;;;;38.20;20.70;;;;;;;4.13;100.00;99800.41;5073787;28;20221;-78
2021/12/04 13:42:35;;;;;;;35.03;18.57;;;;;;;4.22;100.00;99792.13;5072751;28;20227;-81
2021/12/04 13:45:04;;;;;;;35.40;19.90;;;;;;;4.35;100.00;99805.44;5072270;28;20282;-81
2021/12/04 13:47:31;;;;;;;32.73;18.70;;;;;;;4.42;100.00;99804.84;5073846;28;20198;-81
2021/12/04 13:50:00;;;;;;;29.33;17.40;;;;;;;4.21;100.00;99796.41;5074106;28;20595;-83
2021/12/04 13:52:32;;;;;;;30.97;16.57;;;;;;;4.30;100.00;99817.25;5073338;28;20199;-79
2021/12/04 13:55:03;;;;;;;35.80;18.10;;;;;;;4.27;100.00;99824.84;5073853;28;20585;-81
2021/12/04 13:57:29;;;;;;;33.30;16.43;;;;;;;4.09;100.00;99798.53;5072016;28;20234;-80
2021/12/04 13:59:58;;;;;;;29.80;17.13;;;;;;;4.33;100.00;99819.94;5072062;28;20202;-81